Time;durP1;ratioP1;P1;durP2;ratioP2;P2;SDS_P1;SDS_P2;PMS_P1;PMS_P2;Temp;Humidity;BMP_temperature;BMP_pressure;BME280_temperature;BME280_humidity;BME280_pressure;Samples;Min_cycle;Max_cycle;Signal;HPM_P1;HPM_P2
2022/05/08 00:00:00;;;;;;;8.35;7.22;;;;;;;16.44;66.73;100611.94;5017425;28;20026;-95
2022/05/08 00:02:25;;;;;;;9.02;7.45;;;;;;;16.27;68.12;100608.28;5016025;28;20026;-94
2022/05/08 00:04:52;;;;;;;8.57;7.60;;;;;;;16.28;68.35;100609.97;5015927;28;20124;-95
2022/05/08 00:09:53;;;;;;;9.52;7.65;;;;;;;16.35;69.46;100609.19;5154065;23;20471;-95
2022/05/08 00:12:18;;;;;;;8.30;7.50;;;;;;;16.31;69.27;100606.97;5038997;28;20028;-96
2022/05/08 00:14:44;;;;;;;8.65;7.70;;;;;;;16.27;69.67;100614.53;5022455;28;20040;-96
2022/05/08 00:17:13;;;;;;;10.05;9.05;;;;;;;16.29;70.63;100614.38;5022430;28;20106;-96
2022/05/08 00:19:40;;;;;;;11.02;8.52;;;;;;;16.32;70.08;100612.22;5023456;28;20090;-96
2022/05/08 00:22:06;;;;;;;9.32;8.43;;;;;;;16.32;70.15;100609.50;5022719;28;20025;-94
2022/05/08 00:24:31;;;;;;;10.02;8.93;;;;;;;16.31;70.44;100609.66;5041414;28;20394;-96
2022/05/08 00:26:57;;;;;;;9.55;8.40;;;;;;;16.32;70.42;100614.06;5038926;28;20104;-95
2022/05/08 00:29:22;;;;;;;10.18;8.50;;;;;;;16.31;69.86;100606.97;5022346;28;20025;-95
2022/05/08 00:31:47;;;;;;;10.52;9.43;;;;;;;16.32;70.15;100606.81;5039005;28;20025;-95
2022/05/08 00:34:12;;;;;;;11.32;10.20;;;;;;;16.33;70.16;100605.81;5018781;28;20036;-95
2022/05/08 00:36:38;;;;;;;11.15;9.88;;;;;;;16.37;70.75;100603.63;5018896;28;20125;-96
2022/05/08 00:39:03;;;;;;;11.18;10.07;;;;;;;16.33;70.89;100611.19;5043520;28;20060;-95
2022/05/08 00:41:29;;;;;;;10.80;9.68;;;;;;;16.33;71.02;100610.34;5051778;28;20036;-94
2022/05/08 00:43:54;;;;;;;11.43;10.30;;;;;;;16.31;70.82;100605.13;5018492;28;20026;-96
2022/05/08 00:46:19;;;;;;;11.05;9.95;;;;;;;16.30;71.13;100608.81;5052000;28;20028;-94
2022/05/08 00:48:45;;;;;;;10.98;9.88;;;;;;;16.25;71.43;100613.00;5035101;28;20072;-95
2022/05/08 00:51:12;;;;;;;11.75;10.55;;;;;;;16.24;71.04;100612.16;5034856;28;20531;-95
2022/05/08 00:53:43;;;;;;;10.98;9.95;;;;;;;16.20;71.40;100615.31;5051447;28;20030;-96
2022/05/08 00:56:13;;;;;;;11.50;10.30;;;;;;;16.21;70.97;100608.94;5038360;28;20068;-96
2022/05/08 00:58:41;;;;;;;12.38;9.73;;;;;;;16.22;70.63;100608.78;5038133;28;20017;-95
2022/05/08 01:01:07;;;;;;;12.05;10.70;;;;;;;16.22;70.97;100603.38;5038069;28;20033;-95
2022/05/08 01:03:32;;;;;;;11.60;10.27;;;;;;;16.22;70.84;100594.44;5038061;28;20033;-95
2022/05/08 01:06:03;;;;;;;11.52;10.32;;;;;;;16.20;71.11;100594.59;5037974;28;20029;-95
2022/05/08 01:08:40;;;;;;;11.77;10.57;;;;;;;16.17;70.61;100604.84;5449699;22;20024;31
2022/05/08 01:11:07;;;;;;;11.93;10.38;;;;;;;16.18;70.90;100604.69;4939094;29;20106;-94
2022/05/08 01:13:33;;;;;;;11.98;10.68;;;;;;;16.21;72.49;100604.38;4940306;29;20036;-96
2022/05/08 01:15:58;;;;;;;11.77;10.48;;;;;;;16.28;71.92;100607.28;4940373;29;20638;-96
2022/05/08 01:18:24;;;;;;;13.32;11.93;;;;;;;16.26;71.72;100610.16;4939681;29;20063;-95
2022/05/08 01:20:50;;;;;;;12.40;11.00;;;;;;;16.29;71.68;100614.38;4940607;29;20429;-95
2022/05/08 01:23:16;;;;;;;12.25;10.70;;;;;;;16.28;72.55;100608.13;4943461;29;20068;-94
2022/05/08 01:25:59;;;;;;;11.93;10.55;;;;;;;16.27;71.94;100614.53;4940431;29;20023;-95
2022/05/08 01:28:25;;;;;;;11.38;10.10;;;;;;;16.25;71.92;100608.44;4956636;29;20030;-94
2022/05/08 01:30:52;;;;;;;12.23;11.00;;;;;;;16.28;71.54;100612.69;4956177;29;20027;-95
2022/05/08 01:33:18;;;;;;;11.98;10.73;;;;;;;16.26;71.80;100604.75;4940217;29;20027;-96
2022/05/08 01:35:44;;;;;;;13.02;11.45;;;;;;;16.26;72.29;100606.59;4940395;29;20027;-95
2022/05/08 01:38:13;;;;;;;12.40;11.15;;;;;;;16.26;72.28;100610.16;4956099;29;20114;-95
2022/05/08 01:40:39;;;;;;;13.18;11.77;;;;;;;16.15;72.56;100609.56;4940122;29;20485;-95
2022/05/08 01:43:05;;;;;;;13.73;12.27;;;;;;;16.12;73.52;100615.28;4939913;29;20027;-95
2022/05/08 01:45:30;;;;;;;13.77;11.90;;;;;;;16.14;73.59;100614.13;4955992;29;20031;-94
2022/05/08 01:50:40;;;;;;;15.15;13.55;;;;;;;16.16;73.57;100609.41;4956355;29;20069;-96
2022/05/08 01:53:05;;;;;;;16.02;14.32;;;;;;;16.20;73.68;100609.94;4939660;29;20027;-95
2022/05/08 01:55:31;;;;;;;16.48;14.07;;;;;;;16.27;73.50;100600.19;4939769;29;20031;-94
2022/05/08 01:57:57;;;;;;;16.80;14.73;;;;;;;16.28;74.32;100610.84;4923909;29;20363;-96
2022/05/08 02:00:23;;;;;;;17.90;16.00;;;;;;;16.19;74.37;100613.63;4924397;29;20427;-95
2022/05/08 02:02:50;;;;;;;17.02;15.25;;;;;;;16.24;74.49;100617.56;4939503;29;20054;-93
2022/05/08 02:05:16;;;;;;;18.15;16.25;;;;;;;16.20;74.76;100613.47;4923876;29;20027;-96
2022/05/08 02:07:45;;;;;;;17.70;15.88;;;;;;;16.19;74.94;100616.34;4923920;29;20106;-95
2022/05/08 02:10:11;;;;;;;16.95;15.25;;;;;;;16.19;75.25;100624.44;5422960;23;20054;-95
2022/05/08 02:12:36;;;;;;;18.15;15.88;;;;;;;16.29;75.66;100617.06;4977391;28;20038;-93
2022/05/08 02:15:02;;;;;;;18.42;16.50;;;;;;;16.27;75.56;100616.38;4977815;28;20080;-96
2022/05/08 02:17:27;;;;;;;20.38;18.27;;;;;;;16.15;75.89;100613.09;4994253;28;20133;-94
2022/05/08 02:19:52;;;;;;;20.45;18.27;;;;;;;16.20;75.46;100621.56;4994277;28;20109;-94
2022/05/08 02:22:18;;;;;;;19.60;16.92;;;;;;;16.26;75.35;100620.94;4961736;28;20022;-95
2022/05/08 02:24:43;;;;;;;22.05;18.23;;;;;;;16.19;75.74;100621.72;4964046;28;20030;-95
2022/05/08 02:27:08;;;;;;;20.27;18.08;;;;;;;16.13;76.42;100620.50;4978397;28;20034;-96
2022/05/08 02:29:34;;;;;;;20.70;18.42;;;;;;;16.12;76.32;100616.13;4961784;28;20548;-95
2022/05/08 02:31:59;;;;;;;21.33;18.88;;;;;;;16.14;76.17;100616.81;4977510;28;20033;-95
2022/05/08 02:34:24;;;;;;;21.83;18.88;;;;;;;16.20;76.54;100615.31;4977673;28;20030;-95
2022/05/08 02:36:50;;;;;;;20.90;18.60;;;;;;;16.13;75.81;100620.50;4977802;28;20053;-96
2022/05/08 02:39:15;;;;;;;19.67;17.60;;;;;;;16.18;75.79;100617.34;4977755;28;20034;-96
2022/05/08 02:41:40;;;;;;;19.60;17.52;;;;;;;15.99;75.91;100621.91;4974344;28;20424;-95
2022/05/08 02:44:06;;;;;;;18.30;16.35;;;;;;;16.05;75.52;100623.97;4958222;28;20031;-96
2022/05/08 02:46:31;;;;;;;17.85;16.00;;;;;;;16.03;76.49;100617.03;4974187;28;20033;-95
2022/05/08 02:48:56;;;;;;;16.80;15.02;;;;;;;15.97;75.72;100618.50;4974351;28;20033;-92
2022/05/08 02:51:22;;;;;;;17.98;14.95;;;;;;;15.94;75.96;100624.22;4958160;28;20384;-96
2022/05/08 02:53:47;;;;;;;16.60;14.80;;;;;;;15.99;75.63;100629.16;4942091;28;20077;-96
2022/05/08 02:58:56;;;;;;;16.02;14.23;;;;;;;16.05;74.88;100626.66;4961129;28;20492;-95
2022/05/08 03:01:21;;;;;;;16.13;14.23;;;;;;;15.94;74.63;100636.88;4942603;28;20117;-96
2022/05/08 03:03:47;;;;;;;15.90;14.20;;;;;;;15.88;75.69;100624.84;4958338;28;20117;-95
2022/05/08 03:06:13;;;;;;;15.25;13.65;;;;;;;15.95;74.63;100633.16;4958242;28;20122;-95
2022/05/08 03:08:39;;;;;;;14.88;12.65;;;;;;;16.04;74.70;100634.91;4942359;28;20073;-95
2022/05/08 03:13:48;;;;;;;16.70;12.40;;;;;;;15.99;74.19;100640.78;4980208;28;20097;-95
2022/05/08 03:16:14;;;;;;;13.73;12.10;;;;;;;16.04;74.11;100633.06;4977262;28;20022;-94
2022/05/08 03:18:40;;;;;;;12.85;11.18;;;;;;;16.10;73.77;100636.16;4961312;28;20440;-95
2022/05/08 03:21:07;;;;;;;13.73;11.48;;;;;;;15.99;72.82;100637.25;4977760;28;20034;-96
2022/05/08 03:23:34;;;;;;;15.38;11.10;;;;;;;15.98;73.28;100644.47;4961074;28;20049;-95
2022/05/08 03:25:59;;;;;;;14.75;11.18;;;;;;;15.96;72.99;100651.03;4977394;28;20033;-95
2022/05/08 03:28:24;;;;;;;13.75;10.77;;;;;;;15.93;72.80;100638.72;4961042;28;20031;-95
2022/05/08 03:30:50;;;;;;;12.15;10.52;;;;;;;15.96;72.91;100648.34;4961046;28;20019;-94
2022/05/08 03:33:15;;;;;;;10.90;9.27;;;;;;;15.98;72.25;100649.03;4960830;28;20030;-94
2022/05/08 03:35:41;;;;;;;11.52;9.63;;;;;;;15.94;71.94;100653.91;4960951;28;20023;-95
2022/05/08 03:38:07;;;;;;;9.45;8.35;;;;;;;15.81;71.77;100647.19;4960971;28;20441;-95
2022/05/08 03:40:33;;;;;;;10.63;8.32;;;;;;;15.86;71.27;100650.28;4961258;28;20073;-94
2022/05/08 03:42:59;;;;;;;10.05;7.63;;;;;;;15.83;71.13;100647.91;4945265;28;20034;-95
2022/05/08 03:45:24;;;;;;;10.10;7.78;;;;;;;15.89;70.73;100652.66;4945326;28;20057;-94
2022/05/08 03:47:50;;;;;;;11.07;7.50;;;;;;;15.74;69.66;100641.59;4945426;28;20109;-94
2022/05/08 03:50:17;;;;;;;8.55;6.80;;;;;;;15.69;69.79;100646.59;4945390;28;20023;-96
2022/05/08 03:52:42;;;;;;;7.75;6.63;;;;;;;15.68;69.41;100643.06;4945342;28;20126;-92
2022/05/08 03:55:08;;;;;;;7.10;6.40;;;;;;;15.73;69.92;100646.13;4945635;28;20118;-95
2022/05/08 03:57:33;;;;;;;9.00;6.85;;;;;;;15.80;69.91;100651.75;4945357;28;20027;-95
2022/05/08 03:59:58;;;;;;;7.88;5.97;;;;;;;15.71;69.76;100647.28;4945071;28;20034;-94
2022/05/08 04:02:24;;;;;;;11.40;6.70;;;;;;;15.60;69.23;100636.69;4961069;28;20027;-95
2022/05/08 04:04:49;;;;;;;7.40;6.47;;;;;;;15.69;69.79;100646.59;4945239;28;20030;-95
2022/05/08 04:07:14;;;;;;;7.82;6.65;;;;;;;15.72;68.75;100641.75;4945152;28;20027;-95
2022/05/08 04:09:40;;;;;;;11.05;6.90;;;;;;;15.67;68.54;100649.44;4945545;28;20027;-95
2022/05/08 04:12:05;;;;;;;9.45;6.80;;;;;;;15.56;69.27;100648.75;4945126;28;20039;-94
2022/05/08 04:14:30;;;;;;;9.38;6.93;;;;;;;15.55;69.04;100645.22;4945336;28;20030;-96
2022/05/08 04:16:56;;;;;;;8.20;6.75;;;;;;;15.62;68.23;100643.66;4945455;28;20031;-93
2022/05/08 04:19:21;;;;;;;7.70;6.20;;;;;;;15.59;68.60;100652.03;4946871;28;20066;-95
2022/05/08 04:21:46;;;;;;;10.00;6.97;;;;;;;15.66;68.68;100655.00;4945295;28;20094;-92
2022/05/08 04:24:18;;;;;;;7.88;6.07;;;;;;;15.71;69.11;100649.97;4946201;28;20035;-94
2022/05/08 04:26:44;;;;;;;8.77;6.32;;;;;;;15.60;68.74;100651.03;4964944;28;20532;-96
2022/05/08 04:29:09;;;;;;;9.20;6.30;;;;;;;15.66;68.80;100657.69;4945228;28;20023;-92
2022/05/08 04:31:34;;;;;;;9.45;6.75;;;;;;;15.57;68.50;100654.00;4944284;28;20033;-90
2022/05/08 04:34:01;;;;;;;9.93;6.63;;;;;;;15.46;68.33;100665.00;4944459;28;20031;-94
2022/05/08 04:36:26;;;;;;;10.40;6.75;;;;;;;15.52;68.11;100659.00;4944543;28;20388;-92
2022/05/08 04:38:52;;;;;;;14.32;7.32;;;;;;;15.50;68.30;100662.84;4944726;28;20023;-95
2022/05/08 04:41:18;;;;;;;7.90;6.68;;;;;;;15.51;68.56;100669.94;4944302;28;20026;-93
2022/05/08 04:43:43;;;;;;;10.10;6.80;;;;;;;15.52;69.02;100663.56;4960437;28;20117;-92
2022/05/08 04:46:09;;;;;;;8.23;6.28;;;;;;;15.64;68.31;100662.38;4960639;28;20483;-95
2022/05/08 04:48:35;;;;;;;9.35;6.78;;;;;;;15.66;68.38;100660.38;4944454;28;20081;-94
2022/05/08 04:51:00;;;;;;;9.20;6.50;;;;;;;15.69;68.15;100663.63;4944325;28;20018;-94
2022/05/08 04:53:26;;;;;;;7.40;6.53;;;;;;;15.65;67.58;100664.09;4958897;28;20050;-93
2022/05/08 04:55:51;;;;;;;9.75;7.05;;;;;;;15.49;67.33;100677.34;4944382;28;20027;-93
2022/05/08 04:58:16;;;;;;;9.55;6.90;;;;;;;15.43;67.78;100682.34;4943879;28;20025;-95
2022/05/08 05:00:42;;;;;;;11.90;7.43;;;;;;;15.44;67.49;100672.41;4944243;28;20034;-96
2022/05/08 05:03:07;;;;;;;10.88;7.68;;;;;;;15.51;67.68;100680.72;4943873;28;20057;-93
2022/05/08 05:05:34;;;;;;;10.48;7.55;;;;;;;15.63;67.50;100682.25;4943906;28;20027;-93
2022/05/08 05:07:59;;;;;;;11.35;8.10;;;;;;;15.54;67.29;100688.50;4943652;28;20073;-92
2022/05/08 05:10:25;;;;;;;10.85;8.55;;;;;;;15.42;66.68;100693.25;4943646;28;20030;-94
2022/05/08 05:12:50;;;;;;;12.75;8.85;;;;;;;15.36;67.08;100692.03;4943292;28;20401;-96
2022/05/08 05:15:16;;;;;;;11.55;8.38;;;;;;;15.30;67.38;100697.19;4944010;28;20500;-94
2022/05/08 05:17:42;;;;;;;10.70;8.32;;;;;;;15.30;67.63;100692.63;4943774;28;20124;-95
2022/05/08 05:20:08;;;;;;;11.02;8.38;;;;;;;15.38;68.07;100694.56;4943493;28;20440;-95
2022/05/08 05:22:33;;;;;;;9.52;7.82;;;;;;;15.51;67.75;100686.97;4943383;28;20030;-94
2022/05/08 05:24:58;;;;;;;8.93;7.47;;;;;;;15.56;67.35;100694.59;4943950;28;20026;-93
2022/05/08 05:27:25;;;;;;;10.02;7.95;;;;;;;15.62;66.91;100700.28;4943790;28;20109;-94
2022/05/08 05:29:50;;;;;;;9.82;7.70;;;;;;;15.60;66.51;100698.72;4943507;28;20034;-94
2022/05/08 05:32:16;;;;;;;9.82;7.43;;;;;;;15.60;67.16;100696.88;4943494;28;20022;-95
2022/05/08 05:34:41;;;;;;;8.88;7.22;;;;;;;15.58;67.52;100703.41;4943306;28;20035;-95
2022/05/08 05:37:07;;;;;;;9.95;6.78;;;;;;;15.51;67.31;100710.38;4943345;28;20027;-95
2022/05/08 05:39:33;;;;;;;8.27;6.97;;;;;;;15.54;68.13;100710.94;4943199;28;20023;-94
2022/05/08 05:41:58;;;;;;;8.25;6.10;;;;;;;15.49;68.08;100713.22;4959060;28;20019;-95
2022/05/08 05:44:23;;;;;;;8.68;6.15;;;;;;;15.50;68.77;100714.94;4959261;28;20054;-95
2022/05/08 05:49:33;;;;;;;8.00;6.05;;;;;;;15.68;68.40;100715.84;4962025;28;20096;-95
2022/05/08 05:51:58;;;;;;;8.38;6.03;;;;;;;15.69;68.35;100714.84;4942925;28;20121;-96
2022/05/08 05:54:27;;;;;;;8.25;6.22;;;;;;;15.67;68.00;100724.94;4943063;28;20078;-96
2022/05/08 05:56:52;;;;;;;;;;;;;;;15.72;68.21;100719.94;4943428;28;20050;-95
2022/05/08 05:59:17;;;;;;;11.07;6.55;;;;;;;15.51;67.81;100716.63;4942606;28;19910;-95
2022/05/08 06:01:43;;;;;;;8.40;6.70;;;;;;;15.45;68.41;100717.22;4959023;28;20027;-93
2022/05/08 06:04:08;;;;;;;8.73;6.88;;;;;;;15.36;69.13;100720.81;4958622;28;20048;-94
2022/05/08 06:06:34;;;;;;;9.50;7.47;;;;;;;15.37;69.35;100720.69;4942734;28;20468;-94
2022/05/08 06:08:59;;;;;;;12.13;8.35;;;;;;;15.39;68.64;100729.47;4942581;28;20049;-94
2022/05/08 06:11:24;;;;;;;12.98;8.68;;;;;;;15.38;68.89;100727.75;4942273;28;20126;-94
2022/05/08 06:13:50;;;;;;;11.60;8.63;;;;;;;15.38;69.50;100733.16;4941955;28;20070;-95
2022/05/08 06:16:15;;;;;;;10.85;8.55;;;;;;;15.39;69.38;100734.84;4942294;28;20469;-95
2022/05/08 06:18:40;;;;;;;14.07;9.60;;;;;;;15.38;69.76;100745.78;4958731;28;20447;-95
2022/05/08 06:21:06;;;;;;;11.50;9.05;;;;;;;15.53;69.52;100738.03;4942616;28;20552;-93
2022/05/08 06:23:32;;;;;;;12.60;10.18;;;;;;;15.50;69.23;100744.59;4942651;28;20069;-95
2022/05/08 06:25:58;;;;;;;11.48;10.05;;;;;;;15.55;69.70;100741.44;4942553;28;20374;-93
2022/05/08 06:28:23;;;;;;;15.27;11.05;;;;;;;15.48;68.83;100737.63;4942345;28;20026;-95
2022/05/08 06:30:49;;;;;;;12.98;11.05;;;;;;;15.46;69.25;100747.72;4942276;28;20031;-92
2022/05/08 06:33:15;;;;;;;16.58;13.10;;;;;;;15.46;69.14;100745.03;4942220;28;20550;-92
2022/05/08 06:35:41;;;;;;;17.92;13.50;;;;;;;15.46;69.11;100751.28;4942162;28;20034;-96
2022/05/08 06:38:12;;;;;;;17.88;14.93;;;;;;;15.41;69.81;100754.41;4942128;28;20031;-96
2022/05/08 06:40:38;;;;;;;18.05;14.02;;;;;;;15.41;69.46;100750.88;4958855;28;20117;-93
2022/05/08 06:43:03;;;;;;;16.70;13.88;;;;;;;15.46;70.02;100747.72;4942239;28;20069;-94
2022/05/08 06:45:29;;;;;;;18.25;15.13;;;;;;;15.35;69.58;100760.41;4942396;28;20023;-95
2022/05/08 06:47:54;;;;;;;16.55;14.63;;;;;;;15.42;69.70;100760.66;4942031;28;20065;-95
2022/05/08 06:50:20;;;;;;;19.30;15.60;;;;;;;15.45;69.65;100773.84;4942313;28;20500;-95
2022/05/08 06:52:46;;;;;;;16.83;14.57;;;;;;;15.44;69.84;100772.13;4942321;28;20174;-92
2022/05/08 06:55:11;;;;;;;17.70;13.55;;;;;;;15.51;68.82;100770.53;4941952;28;20031;-94
2022/05/08 06:57:37;;;;;;;16.20;13.98;;;;;;;15.27;69.44;100764.84;4958422;28;20026;-94
2022/05/08 07:02:47;;;;;;;14.90;13.38;;;;;;;15.08;70.26;100771.97;4954876;29;20509;-96
2022/05/08 07:05:13;;;;;;;15.48;13.13;;;;;;;15.17;70.22;100772.13;4954727;29;20054;-95
2022/05/08 07:07:38;;;;;;;17.25;14.00;;;;;;;15.30;69.66;100776.19;4954734;29;20059;-96
2022/05/08 07:10:04;;;;;;;14.85;11.85;;;;;;;15.35;68.83;100775.72;4955191;29;20038;-95
2022/05/08 07:12:29;;;;;;;13.90;11.65;;;;;;;15.42;67.57;100776.84;4938504;29;20039;-95
2022/05/08 07:14:54;;;;;;;12.15;10.85;;;;;;;15.32;66.65;100778.72;4938812;29;20038;-95
2022/05/08 07:17:21;;;;;;;15.50;11.75;;;;;;;15.42;66.39;100782.22;4958361;29;20024;-92
2022/05/08 07:19:48;;;;;;;14.45;10.93;;;;;;;15.52;65.72;100788.41;4955800;28;20031;-94
2022/05/08 07:22:15;;;;;;;14.48;10.38;;;;;;;15.56;66.08;100784.41;4959175;28;20076;-96
2022/05/08 07:24:40;;;;;;;13.00;10.43;;;;;;;15.56;65.67;100795.19;4944593;28;20031;-90
2022/05/08 07:27:06;;;;;;;12.45;10.77;;;;;;;15.55;65.49;100789.97;4947934;28;20073;-89
2022/05/08 07:29:31;;;;;;;14.95;10.77;;;;;;;15.64;64.96;100799.91;4947227;28;20050;-87
2022/05/08 07:31:58;;;;;;;12.50;9.80;;;;;;;15.69;64.87;100797.63;4956031;28;20113;-88
2022/05/08 07:37:07;;;;;;;13.75;10.68;;;;;;;15.64;64.76;100797.22;4963870;28;20037;-88
2022/05/08 07:39:32;;;;;;;13.70;9.70;;;;;;;15.70;65.30;100802.00;4973471;28;20034;-89
2022/05/08 07:41:58;;;;;;;12.57;9.98;;;;;;;15.75;65.14;100805.09;4944360;28;20102;-85
2022/05/08 07:44:24;;;;;;;11.27;9.50;;;;;;;15.75;65.18;100802.41;4977451;28;20035;-88
2022/05/08 07:46:54;;;;;;;12.27;9.85;;;;;;;15.74;64.31;100804.25;4944600;28;20165;-90
2022/05/08 07:49:19;;;;;;;13.48;10.20;;;;;;;15.73;64.96;100809.78;4960403;28;20585;-87
2022/05/08 07:51:45;;;;;;;12.52;9.75;;;;;;;15.86;64.79;100804.03;4943468;28;20126;-86
2022/05/08 07:54:11;;;;;;;13.68;10.05;;;;;;;15.78;64.77;100812.03;4943733;28;20033;-89
2022/05/08 07:56:36;;;;;;;11.75;9.60;;;;;;;15.79;64.79;100809.19;4960880;28;20023;-88
2022/05/08 07:59:02;;;;;;;13.30;9.70;;;;;;;15.60;64.03;100814.66;4960704;28;20472;-88
2022/05/08 08:01:27;;;;;;;11.35;8.82;;;;;;;15.66;64.12;100814.09;4945056;28;20023;-88
2022/05/08 08:03:52;;;;;;;11.93;9.30;;;;;;;15.71;64.53;100815.34;4961168;28;20034;-89
2022/05/08 08:06:18;;;;;;;14.05;9.32;;;;;;;15.76;63.87;100824.81;4960565;28;20030;-89
2022/05/08 08:08:43;;;;;;;13.98;9.40;;;;;;;15.62;63.76;100832.41;4956715;28;20038;-88
2022/05/08 08:11:10;;;;;;;11.18;8.32;;;;;;;15.60;64.31;100822.75;4960238;28;20105;-87
2022/05/08 08:13:37;;;;;;;11.48;8.43;;;;;;;15.59;63.73;100821.91;4943433;28;20023;-88
2022/05/08 08:16:02;;;;;;;12.18;8.07;;;;;;;15.64;63.92;100830.41;4940350;28;20473;-88
2022/05/08 08:18:28;;;;;;;10.73;8.27;;;;;;;15.50;62.97;100838.09;4941593;28;20018;-88
2022/05/08 08:20:53;;;;;;;12.70;8.60;;;;;;;15.71;63.13;100838.75;4940993;28;20583;-88
2022/05/08 08:23:19;;;;;;;12.52;7.95;;;;;;;15.65;62.84;100832.13;4942940;28;20039;-89
2022/05/08 08:25:44;;;;;;;10.85;7.80;;;;;;;15.64;62.02;100833.13;4943199;28;20039;-88
2022/05/08 08:28:10;;;;;;;13.77;8.43;;;;;;;15.64;62.45;100833.13;4942578;28;20105;-88
2022/05/08 08:30:36;;;;;;;15.05;8.07;;;;;;;15.82;61.91;100830.47;4942424;28;20056;-87
2022/05/08 08:33:01;;;;;;;11.38;7.60;;;;;;;15.82;61.99;100832.31;4942143;28;20034;-86
2022/05/08 08:35:27;;;;;;;14.05;7.55;;;;;;;15.96;61.69;100832.66;4944060;28;20023;-88
2022/05/08 08:37:53;;;;;;;10.68;7.28;;;;;;;15.86;60.71;100834.56;4944068;28;20088;-85
2022/05/08 08:42:58;;;;;;;13.52;8.02;;;;;;;16.05;61.34;100833.59;5304942;23;20058;-86
2022/05/08 08:48:25;;;;;;;10.98;7.30;;;;;;;15.89;61.09;100845.03;4981433;28;20523;-87
2022/05/08 08:50:51;;;;;;;13.43;8.02;;;;;;;15.93;61.06;100840.19;4955185;28;20046;-87
2022/05/08 08:53:17;;;;;;;13.35;7.97;;;;;;;15.85;61.08;100842.81;4977043;28;20034;-88
2022/05/08 08:55:43;;;;;;;12.90;7.65;;;;;;;15.77;61.58;100842.72;4978592;28;20029;-90
2022/05/08 08:58:08;;;;;;;11.13;7.13;;;;;;;15.86;60.86;100839.94;4976310;28;20038;-88
2022/05/08 09:00:34;;;;;;;11.00;7.60;;;;;;;15.93;61.01;100846.44;4974855;28;20056;-77
2022/05/08 09:02:59;;;;;;;11.18;6.93;;;;;;;16.01;60.99;100848.38;4991994;28;20117;-75
2022/05/08 09:05:25;;;;;;;12.02;6.68;;;;;;;16.13;60.85;100846.34;4995654;28;20034;-87
2022/05/08 09:07:54;;;;;;;12.00;6.75;;;;;;;16.20;60.27;100847.44;4962380;28;20026;-87
2022/05/08 09:10:24;;;;;;;13.95;7.13;;;;;;;16.14;59.23;100856.16;4962020;28;20034;-88
2022/05/08 09:12:52;;;;;;;9.75;6.28;;;;;;;16.09;58.80;100861.16;4961136;28;20026;-88
2022/05/08 09:15:26;;;;;;;10.68;6.50;;;;;;;16.17;59.61;100858.53;4994397;28;20050;-87
2022/05/08 09:18:08;;;;;;;10.68;6.25;;;;;;;16.29;60.23;100863.56;4958420;28;20065;-85
2022/05/08 09:20:35;;;;;;;9.63;6.00;;;;;;;16.16;58.98;100867.63;4978114;28;20033;-84
2022/05/08 09:23:25;;;;;;;7.55;5.28;;;;;;;16.20;59.75;100861.78;4961008;28;20029;-87
2022/05/08 09:26:00;;;;;;;10.05;5.32;;;;;;;16.35;59.09;100862.09;4991471;28;20046;-87
2022/05/08 09:28:27;;;;;;;11.30;5.60;;;;;;;16.33;58.17;100853.31;4984577;28;20018;-89
2022/05/08 09:30:56;;;;;;;9.48;5.72;;;;;;;16.32;58.52;100855.16;4961735;28;20034;-88
2022/05/08 09:33:27;;;;;;;9.02;5.88;;;;;;;16.31;58.43;100853.47;4977197;28;20038;-87
2022/05/08 09:35:52;;;;;;;9.27;6.15;;;;;;;16.37;58.84;100846.59;4976107;28;20041;-84
2022/05/08 09:38:18;;;;;;;9.05;5.57;;;;;;;16.40;58.90;100851.69;4973497;28;20026;-83
2022/05/08 09:40:45;;;;;;;10.93;6.28;;;;;;;16.36;58.28;100859.25;4956359;28;20037;-83
2022/05/08 09:43:29;;;;;;;8.38;5.60;;;;;;;16.36;58.76;100851.16;4958113;28;20057;-84
2022/05/08 09:45:59;;;;;;;10.38;5.75;;;;;;;16.44;58.88;100857.63;4959361;28;20976;-83
2022/05/08 09:48:26;;;;;;;11.75;6.05;;;;;;;16.41;58.96;100855.25;4972217;28;20149;-83
2022/05/08 09:50:55;;;;;;;10.18;5.50;;;;;;;16.37;58.68;100854.69;4957855;28;20058;-84
2022/05/08 09:53:20;;;;;;;8.13;5.30;;;;;;;16.43;58.78;100848.69;4947570;28;20034;-84
2022/05/08 09:55:46;;;;;;;10.57;6.07;;;;;;;16.45;58.66;100851.22;4973917;28;20026;-83
2022/05/08 09:58:11;;;;;;;10.27;6.35;;;;;;;16.48;58.46;100849.06;4973931;28;20026;-84
2022/05/08 10:00:39;;;;;;;11.23;5.63;;;;;;;16.50;59.23;100851.63;4957687;28;20027;-83
2022/05/08 10:03:06;;;;;;;9.98;5.80;;;;;;;16.41;59.40;100855.25;4973689;28;20026;-83
2022/05/08 10:05:32;;;;;;;12.98;6.22;;;;;;;16.32;58.95;100847.06;4958376;28;20127;-83
2022/05/08 10:07:59;;;;;;;10.13;6.35;;;;;;;16.32;59.16;100851.63;4957529;28;20026;-83
2022/05/08 10:15:52;;;;;;;10.30;6.28;;;;;;;16.12;58.27;100845.50;4976283;28;20041;-83
2022/05/08 10:18:28;;;;;;;9.07;6.10;;;;;;;16.19;58.78;100848.44;4957329;28;20055;-83
2022/05/08 10:21:01;;;;;;;13.15;7.05;;;;;;;16.07;59.44;100847.78;4973014;28;20026;-83
2022/05/08 10:23:41;;;;;;;11.40;7.00;;;;;;;16.23;60.11;100845.28;4957336;28;20366;-83
2022/05/08 10:26:16;;;;;;;11.80;6.15;;;;;;;16.39;59.34;100847.28;4957089;28;20035;-83
2022/05/08 10:29:04;;;;;;;7.97;5.20;;;;;;;16.39;58.41;100844.59;4972288;28;20034;-83
2022/05/08 10:31:51;;;;;;;9.63;5.28;;;;;;;16.45;58.77;100843.97;4970651;28;20030;-85
2022/05/08 10:34:35;;;;;;;10.32;5.57;;;;;;;16.54;58.39;100845.75;4971107;28;20030;-84
2022/05/08 10:37:12;;;;;;;8.93;4.72;;;;;;;16.65;58.37;100850.97;4969968;28;20030;-85
2022/05/08 10:39:45;;;;;;;11.00;5.60;;;;;;;16.59;57.07;100859.66;4987376;28;20030;-85
2022/05/08 10:42:23;;;;;;;9.32;4.95;;;;;;;16.69;56.97;100848.81;4947125;28;20050;-85
2022/05/08 10:44:48;;;;;;;10.25;5.20;;;;;;;16.68;56.89;100853.38;4972528;28;20050;-84
2022/05/08 10:47:46;;;;;;;10.38;5.35;;;;;;;16.71;56.07;100854.06;4971974;28;20026;-85
2022/05/08 10:50:13;;;;;;;9.98;5.40;;;;;;;16.71;56.95;100846.81;4939646;28;20034;-85
2022/05/08 10:52:43;;;;;;;10.07;5.45;;;;;;;16.78;56.24;100847.03;4960585;28;20038;-84
2022/05/08 10:55:15;;;;;;;11.45;5.55;;;;;;;16.74;56.57;100842.94;4956643;28;20043;-85
2022/05/08 10:57:43;;;;;;;12.57;5.57;;;;;;;16.77;56.62;100848.03;4956991;28;20063;-85
2022/05/08 11:00:14;;;;;;;8.15;4.82;;;;;;;16.79;57.00;100843.31;4972485;28;20088;-84
2022/05/08 11:02:43;;;;;;;8.95;4.68;;;;;;;16.82;56.25;100827.63;4956661;28;20117;-84
2022/05/08 11:05:12;;;;;;;12.32;5.13;;;;;;;16.84;57.06;100824.78;4972663;28;20051;-84
2022/05/08 11:07:39;;;;;;;10.88;4.88;;;;;;;16.90;56.78;100829.56;4972689;28;20487;-85
2022/05/08 11:10:25;;;;;;;11.80;5.43;;;;;;;16.79;55.55;100827.09;4956820;28;21007;-84
2022/05/08 11:13:05;;;;;;;9.88;4.78;;;;;;;16.75;55.01;100821.16;4988840;28;20098;-84
2022/05/08 11:15:33;;;;;;;8.43;4.60;;;;;;;16.77;55.08;100824.56;4989476;28;20448;-84
2022/05/08 11:18:15;;;;;;;8.88;4.95;;;;;;;16.67;55.37;100819.25;4972072;28;20031;-84
2022/05/08 11:20:57;;;;;;;10.27;4.72;;;;;;;16.72;56.06;100812.53;4969588;28;20057;-82
2022/05/08 11:23:24;;;;;;;8.68;4.38;;;;;;;16.81;55.09;100825.94;4985856;28;20038;-81
2022/05/08 11:25:54;;;;;;;7.97;3.85;;;;;;;16.91;54.61;100826.69;4967363;28;20445;-81
2022/05/08 11:28:22;;;;;;;8.63;4.03;;;;;;;16.86;55.13;100815.50;4962870;28;20405;-83
2022/05/08 11:30:47;;;;;;;6.20;3.70;;;;;;;16.95;54.85;100817.25;4947583;28;20480;-82
2022/05/08 11:36:09;;;;;;;8.82;3.60;;;;;;;17.04;54.62;100811.94;4967651;28;20061;-83
2022/05/08 11:38:42;;;;;;;7.70;3.30;;;;;;;17.09;53.28;100809.63;4965773;28;20025;-83
2022/05/08 11:41:18;;;;;;;9.57;3.35;;;;;;;17.09;52.64;100817.72;4948336;28;20030;-83
2022/05/08 11:43:45;;;;;;;9.60;3.28;;;;;;;17.06;52.88;100810.78;4963969;28;20054;-83
2022/05/08 11:46:31;;;;;;;7.45;3.17;;;;;;;17.10;53.22;100814.84;4965574;28;20375;-82
2022/05/08 11:48:56;;;;;;;6.63;3.20;;;;;;;17.16;53.41;100814.22;4949215;28;20026;-83